Weather at Raytheon Heliport

Public forecast

Using degrees Fahrenheit for public forecast. Weather courtesy of forecast.io.

Closest aviation weather report (METAR) to Raytheon Heliport

Closest report is Laurence G Hanscom Field, 2.9 nm (5.3 km) NW. Retrieved 2020/10/23 20:51 UTC (21 minutes ago):

KBED 232051Z 11009KT 10SM OVC027 17/12 A3013 RMK AO2 SLP214 T01720122 56015

Closest aviation forecast (TAF) to Raytheon Heliport

Closest forecast is Laurence G Hanscom Field, 2.9 nm (5.3 km) NW. Retrieved 2020/10/23 18:42 UTC (3 hours ago):

TAF KBED 231740Z 2318/2418 13005KT P6SM SCT025 FM240200 00000KT P6SM BKN015 FM240600 00000KT 4SM BR SCT003 OVC007 FM240900 VRB03KT 3SM BR OVC003 FM241400 22005KT P6SM OVC012